Augustenborg, Denmark
Current Conditions -  °F | °C
As of 5:20 AM on Sunday 23 Nov 2014 (Local Time) from ETGG Reporting Station
Broken Clouds Broken Clouds  
Wind Chill: 34°   Ceiling: 8000
Heat Index: 41°   Visibility: 4mi
Dew Point: 39°   Wind: 13mph
Humidity: 93%   Direction: 130°SE
Pressure: 30.09"   Gusts: NA
Location:  54.95°N, 9.87°E
Report Text: ETGG 230420Z 13011KT 7000 SCT030 BKN080 05/04 Q1019 WHT
Loading
Personal Weather Stations






























Interactive Weather Map New forecast layout! Learn more

10-Day Weather Forecast

Advertisements
Track Severe Weather on mobile